sensor_id;sensor_type;location;lat;lon;timestamp;pressure;altitude;pressure_sealevel;temperature;humidity
56070;BME280;41944;52.078;-0.058;2023-05-14T00:01:41;102194.55;;;11.13;97.48
56070;BME280;41944;52.078;-0.058;2023-05-14T00:04:08;102192.98;;;11.13;96.61
56070;BME280;41944;52.078;-0.058;2023-05-14T00:06:35;102189.47;;;11.00;97.73
56070;BME280;41944;52.078;-0.058;2023-05-14T00:09:03;102184.91;;;11.04;97.20
56070;BME280;41944;52.078;-0.058;2023-05-14T00:11:30;102184.97;;;11.23;95.98
56070;BME280;41944;52.078;-0.058;2023-05-14T00:13:57;102185.60;;;11.05;96.36
56070;BME280;41944;52.078;-0.058;2023-05-14T00:16:24;102185.74;;;10.89;98.16
56070;BME280;41944;52.078;-0.058;2023-05-14T00:18:51;102182.54;;;11.03;97.28
56070;BME280;41944;52.078;-0.058;2023-05-14T00:21:18;102176.42;;;10.89;97.91
56070;BME280;41944;52.078;-0.058;2023-05-14T00:23:46;102172.80;;;10.81;98.54
56070;BME280;41944;52.078;-0.058;2023-05-14T00:26:13;102166.61;;;10.81;98.83
56070;BME280;41944;52.078;-0.058;2023-05-14T00:28:41;102168.36;;;10.95;98.35
56070;BME280;41944;52.078;-0.058;2023-05-14T00:31:07;102166.66;;;11.08;97.21
56070;BME280;41944;52.078;-0.058;2023-05-14T00:33:35;102157.21;;;10.84;97.82
56070;BME280;41944;52.078;-0.058;2023-05-14T00:36:02;102157.24;;;10.82;99.06
56070;BME280;41944;52.078;-0.058;2023-05-14T00:38:29;102162.60;;;10.98;98.41
56070;BME280;41944;52.078;-0.058;2023-05-14T00:40:57;102160.34;;;11.11;96.63
56070;BME280;41944;52.078;-0.058;2023-05-14T00:43:24;102150.34;;;11.21;95.35
56070;BME280;41944;52.078;-0.058;2023-05-14T00:45:53;102151.33;;;11.22;95.24
56070;BME280;41944;52.078;-0.058;2023-05-14T00:48:22;102148.02;;;10.84;97.24
56070;BME280;41944;52.078;-0.058;2023-05-14T00:50:50;102147.47;;;10.80;97.53
56070;BME280;41944;52.078;-0.058;2023-05-14T00:53:18;102143.16;;;10.86;97.00
56070;BME280;41944;52.078;-0.058;2023-05-14T00:55:46;102136.32;;;10.74;98.12
56070;BME280;41944;52.078;-0.058;2023-05-14T00:58:14;102135.09;;;10.67;98.84
56070;BME280;41944;52.078;-0.058;2023-05-14T01:00:43;102132.04;;;10.60;99.62
56070;BME280;41944;52.078;-0.058;2023-05-14T01:03:10;102134.83;;;10.56;99.50
56070;BME280;41944;52.078;-0.058;2023-05-14T01:05:44;102133.41;;;10.82;98.65
56070;BME280;41944;52.078;-0.058;2023-05-14T01:08:20;102133.86;;;10.76;98.35
56070;BME280;41944;52.078;-0.058;2023-05-14T01:10:52;102134.93;;;10.81;98.38
56070;BME280;41944;52.078;-0.058;2023-05-14T01:13:29;102136.10;;;10.85;98.33
56070;BME280;41944;52.078;-0.058;2023-05-14T01:16:00;102133.94;;;10.95;97.81
56070;BME280;41944;52.078;-0.058;2023-05-14T01:18:29;102130.39;;;10.87;98.04
56070;BME280;41944;52.078;-0.058;2023-05-14T01:20:58;102128.52;;;10.78;98.86
56070;BME280;41944;52.078;-0.058;2023-05-14T01:23:25;102121.90;;;10.67;99.11
56070;BME280;41944;52.078;-0.058;2023-05-14T01:25:52;102123.81;;;10.75;100.00
56070;BME280;41944;52.078;-0.058;2023-05-14T01:28:24;102122.73;;;10.93;99.37
56070;BME280;41944;52.078;-0.058;2023-05-14T01:30:58;102121.39;;;10.88;98.07
56070;BME280;41944;52.078;-0.058;2023-05-14T01:33:28;102116.95;;;10.59;99.75
56070;BME280;41944;52.078;-0.058;2023-05-14T01:35:57;102121.42;;;10.89;98.30
56070;BME280;41944;52.078;-0.058;2023-05-14T01:38:26;102117.13;;;10.71;99.18
56070;BME280;41944;52.078;-0.058;2023-05-14T01:40:54;102117.55;;;11.02;99.14
56070;BME280;41944;52.078;-0.058;2023-05-14T01:43:23;102113.44;;;11.17;96.24
56070;BME280;41944;52.078;-0.058;2023-05-14T01:45:50;102111.86;;;11.00;97.66
56070;BME280;41944;52.078;-0.058;2023-05-14T01:48:18;102110.80;;;11.14;97.16
56070;BME280;41944;52.078;-0.058;2023-05-14T01:50:44;102107.21;;;11.07;97.31
56070;BME280;41944;52.078;-0.058;2023-05-14T01:53:11;102102.52;;;10.90;98.47
56070;BME280;41944;52.078;-0.058;2023-05-14T01:55:38;102096.27;;;10.81;98.74
56070;BME280;41944;52.078;-0.058;2023-05-14T01:58:06;102095.99;;;10.65;100.00
56070;BME280;41944;52.078;-0.058;2023-05-14T02:00:33;102092.72;;;10.69;99.88
56070;BME280;41944;52.078;-0.058;2023-05-14T02:03:00;102093.82;;;10.70;100.00
56070;BME280;41944;52.078;-0.058;2023-05-14T02:05:27;102093.75;;;10.69;100.00
56070;BME280;41944;52.078;-0.058;2023-05-14T02:07:54;102091.40;;;10.57;100.00
56070;BME280;41944;52.078;-0.058;2023-05-14T02:10:21;102083.53;;;10.30;100.00
56070;BME280;41944;52.078;-0.058;2023-05-14T02:12:48;102084.76;;;10.62;100.00
56070;BME280;41944;52.078;-0.058;2023-05-14T02:15:15;102086.36;;;10.73;99.92
56070;BME280;41944;52.078;-0.058;2023-05-14T02:17:42;102088.09;;;10.68;99.06
56070;BME280;41944;52.078;-0.058;2023-05-14T02:20:10;102084.54;;;10.59;98.59
56070;BME280;41944;52.078;-0.058;2023-05-14T02:22:37;102078.61;;;10.40;100.00
56070;BME280;41944;52.078;-0.058;2023-05-14T02:25:07;102079.97;;;10.64;99.49
56070;BME280;41944;52.078;-0.058;2023-05-14T02:27:34;102079.66;;;10.74;97.90
56070;BME280;41944;52.078;-0.058;2023-05-14T02:30:01;102076.60;;;10.81;97.22
56070;BME280;41944;52.078;-0.058;2023-05-14T02:32:28;102070.92;;;10.52;97.96
56070;BME280;41944;52.078;-0.058;2023-05-14T02:34:56;102069.34;;;10.40;99.88
56070;BME280;41944;52.078;-0.058;2023-05-14T02:37:22;102067.96;;;10.55;98.94
56070;BME280;41944;52.078;-0.058;2023-05-14T02:39:49;102070.16;;;10.52;99.92
56070;BME280;41944;52.078;-0.058;2023-05-14T02:42:17;102065.34;;;10.40;100.00
56070;BME280;41944;52.078;-0.058;2023-05-14T02:44:44;102063.11;;;10.24;100.00
56070;BME280;41944;52.078;-0.058;2023-05-14T02:47:11;102063.52;;;10.27;100.00
56070;BME280;41944;52.078;-0.058;2023-05-14T02:49:38;102066.77;;;10.59;100.00
56070;BME280;41944;52.078;-0.058;2023-05-14T02:52:06;102070.11;;;10.74;99.35
56070;BME280;41944;52.078;-0.058;2023-05-14T02:54:33;102073.65;;;10.44;100.00
56070;BME280;41944;52.078;-0.058;2023-05-14T02:57:00;102070.71;;;10.47;100.00
56070;BME280;41944;52.078;-0.058;2023-05-14T02:59:27;102069.85;;;10.41;100.00
56070;BME280;41944;52.078;-0.058;2023-05-14T03:01:54;102070.05;;;10.58;100.00
56070;BME280;41944;52.078;-0.058;2023-05-14T03:04:21;102069.68;;;10.41;100.00
56070;BME280;41944;52.078;-0.058;2023-05-14T03:06:48;102074.49;;;10.64;100.00
56070;BME280;41944;52.078;-0.058;2023-05-14T03:09:15;102067.29;;;10.64;99.71
56070;BME280;41944;52.078;-0.058;2023-05-14T03:11:42;102064.44;;;10.50;100.00
56070;BME280;41944;52.078;-0.058;2023-05-14T03:14:10;102061.03;;;10.54;100.00
56070;BME280;41944;52.078;-0.058;2023-05-14T03:16:37;102063.38;;;10.35;100.00
56070;BME280;41944;52.078;-0.058;2023-05-14T03:19:04;102062.54;;;10.37;100.00
56070;BME280;41944;52.078;-0.058;2023-05-14T03:21:31;102063.03;;;10.48;100.00
56070;BME280;41944;52.078;-0.058;2023-05-14T03:23:59;102058.02;;;10.56;100.00
56070;BME280;41944;52.078;-0.058;2023-05-14T03:26:26;102056.49;;;10.64;100.00
56070;BME280;41944;52.078;-0.058;2023-05-14T03:28:53;102056.40;;;10.66;100.00
56070;BME280;41944;52.078;-0.058;2023-05-14T03:31:20;102054.98;;;10.62;100.00
56070;BME280;41944;52.078;-0.058;2023-05-14T03:33:47;102049.97;;;10.45;100.00
56070;BME280;41944;52.078;-0.058;2023-05-14T03:36:15;102046.75;;;10.29;100.00
56070;BME280;41944;52.078;-0.058;2023-05-14T03:38:42;102045.38;;;10.53;100.00
56070;BME280;41944;52.078;-0.058;2023-05-14T03:41:09;102045.98;;;10.63;100.00
56070;BME280;41944;52.078;-0.058;2023-05-14T03:43:36;102043.28;;;10.69;99.65
56070;BME280;41944;52.078;-0.058;2023-05-14T03:46:02;102038.89;;;10.56;100.00
56070;BME280;41944;52.078;-0.058;2023-05-14T03:48:29;102043.37;;;10.60;99.50
56070;BME280;41944;52.078;-0.058;2023-05-14T03:50:57;102044.96;;;10.64;98.75
56070;BME280;41944;52.078;-0.058;2023-05-14T03:53:24;102040.81;;;10.54;99.58
56070;BME280;41944;52.078;-0.058;2023-05-14T03:55:50;102037.64;;;10.74;98.19
56070;BME280;41944;52.078;-0.058;2023-05-14T03:58:17;102034.87;;;10.65;98.45
56070;BME280;41944;52.078;-0.058;2023-05-14T04:00:45;102033.26;;;10.32;100.00
56070;BME280;41944;52.078;-0.058;2023-05-14T04:03:11;102026.04;;;10.48;100.00
56070;BME280;41944;52.078;-0.058;2023-05-14T04:05:38;102022.46;;;10.57;100.00
56070;BME280;41944;52.078;-0.058;2023-05-14T04:08:06;102021.00;;;10.37;100.00
56070;BME280;41944;52.078;-0.058;2023-05-14T04:10:33;102021.95;;;10.43;100.00
56070;BME280;41944;52.078;-0.058;2023-05-14T04:13:00;102022.42;;;10.51;100.00
56070;BME280;41944;52.078;-0.058;2023-05-14T04:15:27;102025.79;;;10.49;100.00
56070;BME280;41944;52.078;-0.058;2023-05-14T04:17:54;102030.42;;;10.45;100.00
56070;BME280;41944;52.078;-0.058;2023-05-14T04:20:21;102031.05;;;10.54;100.00
56070;BME280;41944;52.078;-0.058;2023-05-14T04:22:48;102031.19;;;10.58;100.00
56070;BME280;41944;52.078;-0.058;2023-05-14T04:25:16;102031.55;;;10.60;100.00
56070;BME280;41944;52.078;-0.058;2023-05-14T04:27:43;102034.33;;;10.42;100.00
56070;BME280;41944;52.078;-0.058;2023-05-14T04:30:11;102035.62;;;10.39;100.00
56070;BME280;41944;52.078;-0.058;2023-05-14T04:32:38;102030.38;;;10.49;100.00
56070;BME280;41944;52.078;-0.058;2023-05-14T04:35:06;102025.96;;;10.48;100.00
56070;BME280;41944;52.078;-0.058;2023-05-14T04:37:33;102022.64;;;10.41;100.00
56070;BME280;41944;52.078;-0.058;2023-05-14T04:40:00;102018.41;;;10.49;100.00
56070;BME280;41944;52.078;-0.058;2023-05-14T04:42:27;102019.64;;;10.20;100.00
56070;BME280;41944;52.078;-0.058;2023-05-14T04:44:55;102021.05;;;10.37;100.00
56070;BME280;41944;52.078;-0.058;2023-05-14T04:47:22;102021.86;;;10.19;100.00
56070;BME280;41944;52.078;-0.058;2023-05-14T04:49:49;102017.65;;;10.03;100.00
56070;BME280;41944;52.078;-0.058;2023-05-14T04:52:16;102018.62;;;10.17;100.00
56070;BME280;41944;52.078;-0.058;2023-05-14T04:54:42;102013.96;;;10.22;100.00
56070;BME280;41944;52.078;-0.058;2023-05-14T04:57:10;102011.64;;;10.19;100.00
56070;BME280;41944;52.078;-0.058;2023-05-14T04:59:37;102009.67;;;10.35;100.00
56070;BME280;41944;52.078;-0.058;2023-05-14T05:02:04;102008.74;;;10.12;100.00
56070;BME280;41944;52.078;-0.058;2023-05-14T05:04:30;102006.29;;;10.27;100.00
56070;BME280;41944;52.078;-0.058;2023-05-14T05:06:58;102003.58;;;10.06;100.00
56070;BME280;41944;52.078;-0.058;2023-05-14T05:09:25;102002.25;;;10.10;100.00
56070;BME280;41944;52.078;-0.058;2023-05-14T05:11:52;102002.98;;;10.03;100.00
56070;BME280;41944;52.078;-0.058;2023-05-14T05:14:19;102004.68;;;10.34;100.00
56070;BME280;41944;52.078;-0.058;2023-05-14T05:16:46;102003.72;;;10.51;100.00
56070;BME280;41944;52.078;-0.058;2023-05-14T05:19:13;102002.73;;;10.49;100.00
56070;BME280;41944;52.078;-0.058;2023-05-14T05:21:41;101998.72;;;10.60;100.00
56070;BME280;41944;52.078;-0.058;2023-05-14T05:24:08;101998.20;;;10.30;100.00
56070;BME280;41944;52.078;-0.058;2023-05-14T05:26:34;101998.38;;;10.45;100.00
56070;BME280;41944;52.078;-0.058;2023-05-14T05:29:02;101995.88;;;10.55;100.00
56070;BME280;41944;52.078;-0.058;2023-05-14T05:31:29;102000.45;;;10.59;100.00
56070;BME280;41944;52.078;-0.058;2023-05-14T05:33:57;101998.27;;;10.34;100.00
56070;BME280;41944;52.078;-0.058;2023-05-14T05:36:24;101995.47;;;10.48;100.00
56070;BME280;41944;52.078;-0.058;2023-05-14T05:38:52;101991.30;;;10.51;100.00
56070;BME280;41944;52.078;-0.058;2023-05-14T05:41:18;101992.02;;;10.37;100.00
56070;BME280;41944;52.078;-0.058;2023-05-14T05:43:45;101990.65;;;10.27;100.00
56070;BME280;41944;52.078;-0.058;2023-05-14T05:46:13;101982.41;;;10.04;100.00
56070;BME280;41944;52.078;-0.058;2023-05-14T05:48:40;101979.79;;;10.18;100.00
56070;BME280;41944;52.078;-0.058;2023-05-14T05:51:07;101973.73;;;10.07;100.00
56070;BME280;41944;52.078;-0.058;2023-05-14T05:53:34;101970.98;;;10.01;100.00
56070;BME280;41944;52.078;-0.058;2023-05-14T05:56:01;101971.67;;;10.11;100.00
56070;BME280;41944;52.078;-0.058;2023-05-14T05:58:28;101972.76;;;10.21;100.00
56070;BME280;41944;52.078;-0.058;2023-05-14T06:00:55;101972.36;;;10.17;100.00
56070;BME280;41944;52.078;-0.058;2023-05-14T06:03:23;101971.60;;;10.37;100.00
56070;BME280;41944;52.078;-0.058;2023-05-14T06:05:50;101971.00;;;10.36;100.00
56070;BME280;41944;52.078;-0.058;2023-05-14T06:08:16;101968.18;;;10.55;100.00
56070;BME280;41944;52.078;-0.058;2023-05-14T06:10:44;101969.56;;;10.79;100.00
56070;BME280;41944;52.078;-0.058;2023-05-14T06:13:11;101967.82;;;10.93;98.99
56070;BME280;41944;52.078;-0.058;2023-05-14T06:15:38;101974.14;;;10.59;100.00
56070;BME280;41944;52.078;-0.058;2023-05-14T06:18:05;101973.86;;;10.57;100.00
56070;BME280;41944;52.078;-0.058;2023-05-14T06:20:33;101976.50;;;10.65;98.97
56070;BME280;41944;52.078;-0.058;2023-05-14T06:23:00;101965.01;;;10.61;99.26
56070;BME280;41944;52.078;-0.058;2023-05-14T06:25:27;101959.30;;;10.38;100.00
56070;BME280;41944;52.078;-0.058;2023-05-14T06:27:54;101960.02;;;10.43;100.00
56070;BME280;41944;52.078;-0.058;2023-05-14T06:30:21;101959.40;;;10.69;99.65
56070;BME280;41944;52.078;-0.058;2023-05-14T06:32:47;101951.98;;;10.44;100.00
56070;BME280;41944;52.078;-0.058;2023-05-14T06:35:14;101951.06;;;10.62;100.00
56070;BME280;41944;52.078;-0.058;2023-05-14T06:37:41;101945.56;;;10.73;100.00
56070;BME280;41944;52.078;-0.058;2023-05-14T06:40:09;101939.83;;;10.94;98.88
56070;BME280;41944;52.078;-0.058;2023-05-14T06:42:36;101940.78;;;10.82;98.35
56070;BME280;41944;52.078;-0.058;2023-05-14T06:45:04;101942.88;;;10.78;99.40
56070;BME280;41944;52.078;-0.058;2023-05-14T06:47:32;101944.58;;;10.63;100.00
56070;BME280;41944;52.078;-0.058;2023-05-14T06:49:59;101952.31;;;10.68;100.00
56070;BME280;41944;52.078;-0.058;2023-05-14T06:52:26;101957.05;;;10.71;100.00
56070;BME280;41944;52.078;-0.058;2023-05-14T06:54:53;101950.20;;;11.05;98.52
56070;BME280;41944;52.078;-0.058;2023-05-14T06:57:21;101949.87;;;11.00;98.32
56070;BME280;41944;52.078;-0.058;2023-05-14T06:59:47;101949.97;;;11.23;96.27
56070;BME280;41944;52.078;-0.058;2023-05-14T07:02:14;101946.31;;;10.99;98.33
56070;BME280;41944;52.078;-0.058;2023-05-14T07:04:42;101945.04;;;11.05;96.97
56070;BME280;41944;52.078;-0.058;2023-05-14T07:07:09;101948.45;;;10.89;97.66
56070;BME280;41944;52.078;-0.058;2023-05-14T07:09:36;101947.36;;;11.26;95.99
56070;BME280;41944;52.078;-0.058;2023-05-14T07:12:04;101946.06;;;11.26;93.38
56070;BME280;41944;52.078;-0.058;2023-05-14T07:14:31;101946.68;;;11.34;93.52
56070;BME280;41944;52.078;-0.058;2023-05-14T07:16:59;101951.54;;;11.25;94.85
56070;BME280;41944;52.078;-0.058;2023-05-14T07:19:26;101951.48;;;11.46;94.01
56070;BME280;41944;52.078;-0.058;2023-05-14T07:21:53;101949.85;;;11.55;92.97
56070;BME280;41944;52.078;-0.058;2023-05-14T07:24:20;101949.31;;;11.25;94.53
56070;BME280;41944;52.078;-0.058;2023-05-14T07:26:47;101951.43;;;11.43;95.43
56070;BME280;41944;52.078;-0.058;2023-05-14T07:29:13;101954.41;;;11.21;95.68
56070;BME280;41944;52.078;-0.058;2023-05-14T07:31:41;101952.95;;;11.21;96.55
56070;BME280;41944;52.078;-0.058;2023-05-14T07:34:07;101954.38;;;11.13;97.49
56070;BME280;41944;52.078;-0.058;2023-05-14T07:36:35;101950.22;;;11.22;97.03
56070;BME280;41944;52.078;-0.058;2023-05-14T07:39:02;101954.09;;;11.25;96.83
56070;BME280;41944;52.078;-0.058;2023-05-14T07:41:29;101954.35;;;11.26;97.71
56070;BME280;41944;52.078;-0.058;2023-05-14T07:43:56;101952.85;;;11.20;97.62
56070;BME280;41944;52.078;-0.058;2023-05-14T07:46:23;101950.28;;;11.31;97.05
56070;BME280;41944;52.078;-0.058;2023-05-14T07:48:51;101949.71;;;11.77;93.31
56070;BME280;41944;52.078;-0.058;2023-05-14T07:51:18;101943.48;;;11.59;93.90
56070;BME280;41944;52.078;-0.058;2023-05-14T07:53:45;101944.54;;;11.37;96.25
56070;BME280;41944;52.078;-0.058;2023-05-14T07:56:12;101940.78;;;11.45;96.14
56070;BME280;41944;52.078;-0.058;2023-05-14T07:58:39;101936.36;;;11.66;92.98
56070;BME280;41944;52.078;-0.058;2023-05-14T08:01:11;101937.29;;;11.61;94.47
56070;BME280;41944;52.078;-0.058;2023-05-14T08:03:38;101943.17;;;11.58;95.62
56070;BME280;41944;52.078;-0.058;2023-05-14T08:06:06;101941.22;;;11.55;95.80
56070;BME280;41944;52.078;-0.058;2023-05-14T08:08:33;101941.46;;;11.80;94.08
56070;BME280;41944;52.078;-0.058;2023-05-14T08:11:01;101944.23;;;11.89;92.00
56070;BME280;41944;52.078;-0.058;2023-05-14T08:13:29;101940.84;;;11.99;91.07
56070;BME280;41944;52.078;-0.058;2023-05-14T08:15:56;101939.45;;;11.82;92.37
56070;BME280;41944;52.078;-0.058;2023-05-14T08:18:22;101933.21;;;11.84;91.40
56070;BME280;41944;52.078;-0.058;2023-05-14T08:20:50;101929.31;;;11.93;92.40
56070;BME280;41944;52.078;-0.058;2023-05-14T08:23:17;101926.29;;;12.14;91.21
56070;BME280;41944;52.078;-0.058;2023-05-14T08:25:45;101922.24;;;12.08;90.87
56070;BME280;41944;52.078;-0.058;2023-05-14T08:28:12;101923.24;;;12.10;90.90
56070;BME280;41944;52.078;-0.058;2023-05-14T08:30:39;101919.68;;;12.10;88.66
56070;BME280;41944;52.078;-0.058;2023-05-14T08:33:07;101919.25;;;12.22;88.72
56070;BME280;41944;52.078;-0.058;2023-05-14T08:35:33;101920.41;;;12.41;87.87
56070;BME280;41944;52.078;-0.058;2023-05-14T08:38:00;101918.68;;;12.25;88.20
56070;BME280;41944;52.078;-0.058;2023-05-14T08:40:28;101921.27;;;12.35;88.34
56070;BME280;41944;52.078;-0.058;2023-05-14T08:42:56;101922.26;;;12.44;88.06
56070;BME280;41944;52.078;-0.058;2023-05-14T08:45:27;101915.78;;;12.71;86.33
56070;BME280;41944;52.078;-0.058;2023-05-14T08:47:54;101911.88;;;12.88;85.60
56070;BME280;41944;52.078;-0.058;2023-05-14T08:50:23;101913.42;;;13.00;85.11
56070;BME280;41944;52.078;-0.058;2023-05-14T08:52:51;101914.88;;;13.17;83.90
56070;BME280;41944;52.078;-0.058;2023-05-14T08:55:19;101920.06;;;13.09;82.59
56070;BME280;41944;52.078;-0.058;2023-05-14T08:57:47;101914.44;;;13.18;82.59
56070;BME280;41944;52.078;-0.058;2023-05-14T09:00:15;101907.75;;;13.34;81.54
56070;BME280;41944;52.078;-0.058;2023-05-14T09:02:43;101909.03;;;13.24;81.71
56070;BME280;41944;52.078;-0.058;2023-05-14T09:05:11;101906.29;;;13.33;81.86
56070;BME280;41944;52.078;-0.058;2023-05-14T09:07:38;101903.90;;;13.39;81.93
56070;BME280;41944;52.078;-0.058;2023-05-14T09:10:06;101902.08;;;13.54;81.19
56070;BME280;41944;52.078;-0.058;2023-05-14T09:12:34;101897.22;;;13.59;81.13
56070;BME280;41944;52.078;-0.058;2023-05-14T09:15:01;101893.35;;;13.35;82.26
56070;BME280;41944;52.078;-0.058;2023-05-14T09:17:28;101894.07;;;13.44;82.23
56070;BME280;41944;52.078;-0.058;2023-05-14T09:19:56;101893.94;;;13.79;79.89
56070;BME280;41944;52.078;-0.058;2023-05-14T09:22:24;101895.99;;;13.58;81.73
56070;BME280;41944;52.078;-0.058;2023-05-14T09:25:08;101891.20;;;13.50;82.00
56070;BME280;41944;52.078;-0.058;2023-05-14T09:27:35;101898.30;;;13.71;81.33
56070;BME280;41944;52.078;-0.058;2023-05-14T09:30:08;101901.04;;;14.00;79.18
56070;BME280;41944;52.078;-0.058;2023-05-14T09:32:37;101900.07;;;14.16;77.97
56070;BME280;41944;52.078;-0.058;2023-05-14T09:35:14;101892.71;;;14.35;77.27
56070;BME280;41944;52.078;-0.058;2023-05-14T09:37:43;101890.11;;;14.37;77.43
56070;BME280;41944;52.078;-0.058;2023-05-14T09:40:11;101883.43;;;14.57;75.99
56070;BME280;41944;52.078;-0.058;2023-05-14T09:42:38;101884.69;;;14.64;76.31
56070;BME280;41944;52.078;-0.058;2023-05-14T09:45:07;101889.70;;;14.79;75.68
56070;BME280;41944;52.078;-0.058;2023-05-14T09:47:34;101891.56;;;14.63;77.20
56070;BME280;41944;52.078;-0.058;2023-05-14T09:50:02;101892.10;;;14.87;76.50
56070;BME280;41944;52.078;-0.058;2023-05-14T09:52:29;101889.65;;;14.86;76.36
56070;BME280;41944;52.078;-0.058;2023-05-14T09:54:57;101889.84;;;14.99;75.62
56070;BME280;41944;52.078;-0.058;2023-05-14T09:57:24;101889.78;;;15.20;75.95
56070;BME280;41944;52.078;-0.058;2023-05-14T09:59:52;101886.70;;;15.32;74.46
56070;BME280;41944;52.078;-0.058;2023-05-14T10:02:22;101887.50;;;15.54;72.11
56070;BME280;41944;52.078;-0.058;2023-05-14T10:04:52;101895.86;;;15.51;72.10
56070;BME280;41944;52.078;-0.058;2023-05-14T10:07:22;101896.36;;;15.47;72.42
56070;BME280;41944;52.078;-0.058;2023-05-14T10:09:56;101891.42;;;15.34;74.01
56070;BME280;41944;52.078;-0.058;2023-05-14T10:12:26;101886.19;;;15.48;71.86
56070;BME280;41944;52.078;-0.058;2023-05-14T10:14:56;101879.68;;;15.43;72.33
56070;BME280;41944;52.078;-0.058;2023-05-14T10:17:30;101875.67;;;15.10;73.42
56070;BME280;41944;52.078;-0.058;2023-05-14T10:19:59;101875.18;;;15.13;74.15
56070;BME280;41944;52.078;-0.058;2023-05-14T10:22:30;101880.15;;;15.34;73.09
56070;BME280;41944;52.078;-0.058;2023-05-14T10:25:00;101880.52;;;15.41;72.24
56070;BME280;41944;52.078;-0.058;2023-05-14T10:27:27;101876.41;;;15.69;70.42
56070;BME280;41944;52.078;-0.058;2023-05-14T10:29:55;101873.30;;;15.77;71.80
56070;BME280;41944;52.078;-0.058;2023-05-14T10:32:23;101866.66;;;16.02;70.52
56070;BME280;41944;52.078;-0.058;2023-05-14T10:34:52;101866.88;;;16.43;69.04
56070;BME280;41944;52.078;-0.058;2023-05-14T10:37:21;101866.77;;;16.50;67.48
56070;BME280;41944;52.078;-0.058;2023-05-14T10:39:50;101872.62;;;16.70;67.75
56070;BME280;41944;52.078;-0.058;2023-05-14T10:42:19;101871.25;;;16.75;66.85
56070;BME280;41944;52.078;-0.058;2023-05-14T10:44:50;101871.48;;;16.80;68.52
56070;BME280;41944;52.078;-0.058;2023-05-14T10:47:17;101867.39;;;16.85;67.70
56070;BME280;41944;52.078;-0.058;2023-05-14T10:49:45;101865.04;;;17.00;66.85
56070;BME280;41944;52.078;-0.058;2023-05-14T10:52:15;101862.88;;;17.05;65.30
56070;BME280;41944;52.078;-0.058;2023-05-14T10:54:48;101861.80;;;16.98;64.59
56070;BME280;41944;52.078;-0.058;2023-05-14T10:57:16;101856.33;;;16.84;65.18
56070;BME280;41944;52.078;-0.058;2023-05-14T10:59:43;101851.62;;;16.77;66.38
56070;BME280;41944;52.078;-0.058;2023-05-14T11:02:20;101852.20;;;16.89;66.46
56070;BME280;41944;52.078;-0.058;2023-05-14T11:04:56;101844.46;;;17.08;66.38
56070;BME280;41944;52.078;-0.058;2023-05-14T11:07:27;101843.61;;;17.28;66.36
56070;BME280;41944;52.078;-0.058;2023-05-14T11:09:59;101843.19;;;17.42;64.71
56070;BME280;41944;52.078;-0.058;2023-05-14T11:12:27;101838.52;;;17.41;64.92
56070;BME280;41944;52.078;-0.058;2023-05-14T11:14:56;101832.75;;;17.14;66.00
56070;BME280;41944;52.078;-0.058;2023-05-14T11:17:24;101827.93;;;17.28;65.24
56070;BME280;41944;52.078;-0.058;2023-05-14T11:19:52;101825.72;;;17.49;64.29
56070;BME280;41944;52.078;-0.058;2023-05-14T11:22:19;101819.80;;;17.43;64.57
56070;BME280;41944;52.078;-0.058;2023-05-14T11:24:47;101817.87;;;17.53;64.99
56070;BME280;41944;52.078;-0.058;2023-05-14T11:27:14;101817.14;;;17.42;64.70
56070;BME280;41944;52.078;-0.058;2023-05-14T11:29:43;101815.89;;;17.23;66.08
56070;BME280;41944;52.078;-0.058;2023-05-14T11:32:12;101815.97;;;17.24;66.39
56070;BME280;41944;52.078;-0.058;2023-05-14T11:34:40;101815.08;;;17.24;67.50
56070;BME280;41944;52.078;-0.058;2023-05-14T11:37:08;101810.38;;;17.48;67.51
56070;BME280;41944;52.078;-0.058;2023-05-14T11:39:35;101806.28;;;17.52;67.29
56070;BME280;41944;52.078;-0.058;2023-05-14T11:42:04;101800.12;;;17.68;67.42
56070;BME280;41944;52.078;-0.058;2023-05-14T11:44:36;101798.74;;;17.84;66.11
56070;BME280;41944;52.078;-0.058;2023-05-14T11:47:04;101797.13;;;17.92;66.23
56070;BME280;41944;52.078;-0.058;2023-05-14T11:49:31;101793.16;;;17.77;66.78
56070;BME280;41944;52.078;-0.058;2023-05-14T11:52:00;101794.12;;;17.86;67.23
56070;BME280;41944;52.078;-0.058;2023-05-14T11:54:28;101790.23;;;17.80;67.91
56070;BME280;41944;52.078;-0.058;2023-05-14T11:56:56;101789.50;;;17.92;68.43
56070;BME280;41944;52.078;-0.058;2023-05-14T11:59:24;101787.59;;;18.05;68.46
56070;BME280;41944;52.078;-0.058;2023-05-14T12:01:51;101780.91;;;18.33;67.00
56070;BME280;41944;52.078;-0.058;2023-05-14T12:04:18;101777.56;;;18.57;66.64
56070;BME280;41944;52.078;-0.058;2023-05-14T12:06:46;101776.88;;;18.54;66.26
56070;BME280;41944;52.078;-0.058;2023-05-14T12:09:15;101774.64;;;18.53;66.67
56070;BME280;41944;52.078;-0.058;2023-05-14T12:11:43;101769.99;;;18.56;66.67
56070;BME280;41944;52.078;-0.058;2023-05-14T12:14:10;101764.29;;;18.75;66.79
56070;BME280;41944;52.078;-0.058;2023-05-14T12:16:39;101764.57;;;18.75;66.19
56070;BME280;41944;52.078;-0.058;2023-05-14T12:19:08;101765.68;;;18.91;65.98
56070;BME280;41944;52.078;-0.058;2023-05-14T12:21:37;101765.13;;;18.98;65.63
56070;BME280;41944;52.078;-0.058;2023-05-14T12:24:08;101762.10;;;19.26;64.55
56070;BME280;41944;52.078;-0.058;2023-05-14T12:26:35;101758.83;;;19.32;64.84
56070;BME280;41944;52.078;-0.058;2023-05-14T12:29:03;101755.42;;;19.13;65.41
56070;BME280;41944;52.078;-0.058;2023-05-14T12:31:31;101751.88;;;19.46;65.21
56070;BME280;41944;52.078;-0.058;2023-05-14T12:33:59;101747.87;;;19.59;64.57
56070;BME280;41944;52.078;-0.058;2023-05-14T12:36:27;101746.03;;;19.85;63.69
56070;BME280;41944;52.078;-0.058;2023-05-14T12:38:58;101744.71;;;19.85;64.10
56070;BME280;41944;52.078;-0.058;2023-05-14T12:41:26;101741.96;;;19.98;63.96